Time;durP1;ratioP1;P1;durP2;ratioP2;P2;SDS_P1;SDS_P2;PMS_P1;PMS_P2;Temp;Humidity;BMP_temperature;BMP_pressure;BME280_temperature;BME280_humidity;BME280_pressure;Samples;Min_cycle;Max_cycle;Signal;HPM_P1;HPM_P2
2021/11/03 00:00:23;;;;;;;26.48;18.40;;;;;;;10.32;77.18;100637.11;1775051;80;20940;-78
2021/11/03 00:02:50;;;;;;;22.45;17.50;;;;;;;10.29;77.21;100637.27;1775165;80;22009;-77
2021/11/03 00:05:17;;;;;;;25.02;18.73;;;;;;;10.25;77.30;100643.59;1775243;80;20968;-78
2021/11/03 00:07:46;;;;;;;27.40;18.90;;;;;;;10.21;77.28;100649.97;1775212;80;21445;-77
2021/11/03 00:10:14;;;;;;;22.45;18.52;;;;;;;10.15;77.44;100647.22;1775381;80;20928;-77
2021/11/03 00:12:43;;;;;;;22.35;17.90;;;;;;;10.15;77.51;100649.84;1775408;80;21390;-78
2021/11/03 00:15:10;;;;;;;23.05;17.07;;;;;;;10.11;77.68;100645.70;1773597;80;21185;-78
2021/11/03 00:17:37;;;;;;;24.47;17.20;;;;;;;10.14;77.82;100638.52;1733420;82;20952;-79
2021/11/03 00:20:09;;;;;;;21.27;16.80;;;;;;;10.16;77.73;100631.42;1733715;82;20948;-78
2021/11/03 00:22:36;;;;;;;22.58;17.32;;;;;;;10.20;77.78;100638.62;1707360;83;20941;-78
2021/11/03 00:25:05;;;;;;;27.40;19.40;;;;;;;10.22;77.55;100643.30;1772770;81;20980;-78
2021/11/03 00:27:32;;;;;;;25.57;17.55;;;;;;;10.24;77.57;100644.54;1772542;80;21087;-78
2021/11/03 00:29:59;;;;;;;21.07;17.25;;;;;;;10.26;77.40;100648.75;1772873;81;20876;-78
2021/11/03 00:32:27;;;;;;;25.35;18.45;;;;;;;10.26;77.11;100647.91;1772633;80;20920;-76
2021/11/03 00:34:54;;;;;;;24.57;18.07;;;;;;;10.21;77.04;100644.73;1772757;81;20876;-77
2021/11/03 00:37:21;;;;;;;24.47;17.25;;;;;;;10.14;77.01;100637.69;1772761;80;20975;-77
2021/11/03 00:39:48;;;;;;;22.70;17.20;;;;;;;10.07;77.12;100642.44;1772748;80;21150;-77
2021/11/03 00:42:15;;;;;;;24.50;19.00;;;;;;;10.03;77.32;100647.47;1772747;80;21046;-77
2021/11/03 00:44:42;;;;;;;23.87;18.85;;;;;;;10.01;77.41;100649.80;1772730;81;21394;-78
2021/11/03 00:47:10;;;;;;;23.57;17.23;;;;;;;9.99;77.59;100652.50;1772869;81;20963;-78
2021/11/03 00:49:37;;;;;;;22.32;16.02;;;;;;;10.01;77.62;100651.95;1773100;80;20892;-78
2021/11/03 00:52:05;;;;;;;26.17;17.45;;;;;;;10.00;77.58;100659.41;1772596;79;21127;-78
2021/11/03 00:54:32;;;;;;;22.80;16.65;;;;;;;10.02;77.66;100664.58;1772515;79;21358;-78
2021/11/03 00:56:59;;;;;;;24.98;18.00;;;;;;;10.03;77.65;100669.73;1772746;79;21038;-78
2021/11/03 00:59:26;;;;;;;21.87;16.57;;;;;;;10.05;77.65;100674.43;1772579;81;21544;-77
2021/11/03 01:01:53;;;;;;;25.32;17.15;;;;;;;10.06;77.64;100679.20;1771505;80;20825;-77
2021/11/03 01:04:21;;;;;;;24.92;18.82;;;;;;;10.08;77.71;100692.59;1768232;81;21361;-77
2021/11/03 01:06:48;;;;;;;31.40;22.52;;;;;;;10.13;77.97;100689.70;1768321;81;20959;-78
2021/11/03 01:09:17;;;;;;;27.77;21.02;;;;;;;10.23;78.01;100700.05;1768437;81;20952;-77
2021/11/03 01:11:46;;;;;;;29.27;21.87;;;;;;;10.31;77.94;100700.47;1768460;81;20920;-78
2021/11/03 01:15:57;;;;;;;29.82;19.60;;;;;;;10.46;77.56;100690.87;1798651;79;22655;-77
2021/11/03 01:18:26;;;;;;;36.83;25.50;;;;;;;10.44;77.08;100699.77;1758101;81;20845;-77
2021/11/03 01:20:53;;;;;;;26.30;19.75;;;;;;;10.41;76.91;100700.80;1758203;81;21646;-78
2021/11/03 01:23:20;;;;;;;26.05;18.07;;;;;;;10.37;76.85;100701.90;1757805;81;20963;-76
2021/11/03 01:25:47;;;;;;;31.62;20.20;;;;;;;10.33;76.79;100699.08;1758230;81;21369;-77
2021/11/03 01:28:14;;;;;;;24.65;18.75;;;;;;;10.30;76.93;100699.27;1758087;80;20892;-77
2021/11/03 01:30:42;;;;;;;26.37;19.52;;;;;;;10.29;77.11;100697.11;1758166;81;20920;-77
2021/11/03 01:33:08;;;;;;;29.40;19.75;;;;;;;10.31;77.32;100697.84;1758259;81;21148;-77
2021/11/03 01:35:36;;;;;;;30.68;20.48;;;;;;;10.34;77.21;100697.69;1758065;80;20873;-77
2021/11/03 01:38:03;;;;;;;28.10;19.95;;;;;;;10.34;77.15;100702.09;1714964;81;20956;-77
2021/11/03 01:40:35;;;;;;;31.65;19.92;;;;;;;10.34;77.17;100688.98;1758208;81;20999;-77
2021/11/03 01:43:03;;;;;;;29.75;19.98;;;;;;;10.37;77.21;100687.48;1739117;81;21366;-76
2021/11/03 01:45:30;;;;;;;44.77;21.30;;;;;;;10.39;77.13;100686.09;1758488;81;21114;-77
2021/11/03 01:48:01;;;;;;;34.23;21.25;;;;;;;10.38;77.10;100689.16;1758366;81;20860;-77
2021/11/03 01:50:42;;;;;;;37.35;23.32;;;;;;;10.36;77.16;100687.12;1758664;81;21383;-77
2021/11/03 01:53:16;;;;;;;33.70;21.77;;;;;;;10.37;77.26;100690.10;1754574;81;21030;-77
2021/11/03 01:55:50;;;;;;;33.95;22.45;;;;;;;10.40;77.16;100692.53;1758586;81;21557;-77
2021/11/03 01:58:22;;;;;;;35.20;22.73;;;;;;;10.39;77.08;100688.23;1758495;81;21142;-77
2021/11/03 02:00:51;;;;;;;33.38;24.27;;;;;;;10.39;77.16;100702.66;1758555;81;20849;-77
2021/11/03 02:03:20;;;;;;;38.83;23.83;;;;;;;10.38;77.17;100697.02;1758193;81;21420;-79
2021/11/03 02:05:50;;;;;;;31.40;22.90;;;;;;;10.37;77.19;100700.59;1758407;81;20899;-78
2021/11/03 02:08:18;;;;;;;44.98;24.90;;;;;;;10.35;77.34;100695.42;1758673;80;20893;-76
2021/11/03 02:10:45;;;;;;;35.25;23.22;;;;;;;10.38;77.49;100694.40;1758926;81;21331;-78
2021/11/03 02:13:12;;;;;;;48.75;32.90;;;;;;;10.40;77.48;100696.47;1758252;81;20916;-77
2021/11/03 02:15:41;;;;;;;55.25;33.55;;;;;;;10.41;77.45;100703.89;1747926;81;20929;-76
2021/11/03 02:18:11;;;;;;;49.67;32.90;;;;;;;10.39;77.54;100703.13;1744973;81;20893;-77
2021/11/03 02:20:43;;;;;;;51.92;33.08;;;;;;;10.39;77.60;100701.82;1745464;82;21319;-76
2021/11/03 02:23:45;;;;;;;55.70;37.45;;;;;;;10.41;77.66;100700.80;1745153;80;21809;-78
2021/11/03 02:26:21;;;;;;;60.70;38.42;;;;;;;10.43;77.67;100700.72;1744625;80;20980;-77
2021/11/03 02:28:48;;;;;;;61.45;41.20;;;;;;;10.44;77.67;100702.39;1744739;81;20967;-76
2021/11/03 02:31:46;;;;;;;67.20;42.83;;;;;;;10.41;77.69;100695.55;1744444;80;20952;-77
2021/11/03 02:34:22;;;;;;;64.55;42.27;;;;;;;10.43;77.84;100702.86;1744969;82;21355;-76
2021/11/03 02:36:53;;;;;;;70.03;42.65;;;;;;;10.46;77.73;100703.15;1744474;82;21130;-75
2021/11/03 02:39:41;;;;;;;73.07;45.85;;;;;;;10.46;77.64;100701.84;1744374;81;21442;-76
2021/11/03 02:42:08;;;;;;;68.97;45.25;;;;;;;10.44;77.70;100701.08;1744585;81;20850;-76
2021/11/03 02:44:37;;;;;;;82.27;48.35;;;;;;;10.41;77.76;100703.41;1744586;82;20901;-76
2021/11/03 02:47:05;;;;;;;78.78;46.63;;;;;;;10.40;77.88;100708.73;1744737;81;20980;-77
2021/11/03 02:49:38;;;;;;;78.57;48.10;;;;;;;10.40;77.91;100707.42;1744732;80;21550;-76
2021/11/03 02:52:21;;;;;;;72.53;47.30;;;;;;;10.39;78.02;100705.28;1744645;82;20878;-76
2021/11/03 02:54:49;;;;;;;78.92;49.38;;;;;;;10.38;78.09;100698.33;1712218;83;21437;-77
2021/11/03 02:57:17;;;;;;;83.75;49.38;;;;;;;10.37;78.18;100701.42;1711942;83;20951;-77
2021/11/03 02:59:44;;;;;;;80.38;50.55;;;;;;;10.39;78.20;100708.37;1712332;83;20948;-77
2021/11/03 03:02:12;;;;;;;79.32;50.90;;;;;;;10.36;78.24;100702.38;1712068;83;21086;-78
2021/11/03 03:04:42;;;;;;;83.85;49.88;;;;;;;10.35;78.30;100699.83;1712759;83;20904;-78
2021/11/03 03:07:10;;;;;;;79.72;51.25;;;;;;;10.34;78.42;100703.40;1712205;83;20988;-77
2021/11/03 03:09:37;;;;;;;80.32;53.15;;;;;;;10.32;78.55;100703.95;1711996;83;21437;-79
2021/11/03 03:12:08;;;;;;;76.20;48.28;;;;;;;10.33;78.73;100698.60;1711921;83;20971;-78
2021/11/03 03:14:39;;;;;;;80.22;46.85;;;;;;;10.37;78.77;100701.42;1710983;83;21615;-77
2021/11/03 03:17:09;;;;;;;76.77;47.67;;;;;;;10.42;78.75;100698.53;1707092;84;20920;-77
2021/11/03 03:19:37;;;;;;;78.22;49.70;;;;;;;10.43;78.73;100697.63;1707526;84;20936;-77
2021/11/03 03:22:04;;;;;;;77.55;48.13;;;;;;;10.44;78.65;100695.36;1707461;84;20952;-78
2021/11/03 03:24:32;;;;;;;75.97;46.73;;;;;;;10.44;78.67;100695.36;1707396;84;21004;-77
2021/11/03 03:27:00;;;;;;;73.95;48.10;;;;;;;10.47;78.62;100697.83;1707180;84;21517;-77
2021/11/03 03:29:29;;;;;;;68.95;46.95;;;;;;;10.47;78.57;100693.89;1707291;84;20900;-77
2021/11/03 03:31:56;;;;;;;68.35;41.40;;;;;;;10.48;78.57;100694.73;1729984;80;21402;-78
2021/11/03 03:34:24;;;;;;;65.50;42.55;;;;;;;10.47;78.58;100686.03;1752837;82;20917;-78
2021/11/03 03:36:52;;;;;;;61.20;41.55;;;;;;;10.46;78.64;100686.94;1752707;80;20963;-77
2021/11/03 03:39:21;;;;;;;63.42;40.98;;;;;;;10.46;78.70;100690.04;1752767;82;21125;-77
2021/11/03 03:41:52;;;;;;;62.75;39.92;;;;;;;10.47;78.87;100694.33;1733425;82;20901;-77
2021/11/03 03:44:20;;;;;;;56.80;36.60;;;;;;;10.48;78.84;100690.32;1752709;82;20908;-76
2021/11/03 03:46:49;;;;;;;61.37;38.98;;;;;;;10.49;78.88;100688.09;1733362;82;21027;-77
2021/11/03 03:49:16;;;;;;;52.67;33.92;;;;;;;10.50;78.90;100679.75;1752801;82;20935;-75
2021/11/03 03:51:43;;;;;;;51.73;35.45;;;;;;;10.49;78.96;100692.03;1752340;82;21593;-76
2021/11/03 03:54:10;;;;;;;49.67;33.38;;;;;;;10.49;79.11;100679.36;1752809;82;21018;-76
2021/11/03 03:56:37;;;;;;;50.67;32.50;;;;;;;10.47;79.16;100688.65;1752521;82;21406;-76
2021/11/03 03:59:05;;;;;;;47.70;31.50;;;;;;;10.45;79.29;100680.02;1752671;80;20956;-77
2021/11/03 04:01:32;;;;;;;45.58;30.75;;;;;;;10.46;79.41;100687.42;1752763;82;20960;-77
2021/11/03 04:04:01;;;;;;;44.05;30.35;;;;;;;10.47;79.49;100694.33;1752571;80;21523;-77
2021/11/03 04:06:28;;;;;;;41.55;28.02;;;;;;;10.45;79.65;100674.78;1752346;82;20853;-77
2021/11/03 04:08:56;;;;;;;46.88;29.77;;;;;;;10.46;79.78;100679.55;1752659;82;20884;-78
2021/11/03 04:11:23;;;;;;;40.28;28.17;;;;;;;10.45;79.81;100682.65;1752649;80;20944;-77
2021/11/03 04:13:51;;;;;;;46.85;29.20;;;;;;;10.46;79.94;100669.06;1752496;80;21410;-77
2021/11/03 04:16:19;;;;;;;44.53;28.12;;;;;;;10.49;80.01;100663.19;1756580;81;21190;-77
2021/11/03 04:18:47;;;;;;;38.73;26.90;;;;;;;10.52;79.98;100669.55;1758004;81;20857;-78
2021/11/03 04:21:14;;;;;;;40.05;26.62;;;;;;;10.54;79.97;100667.68;1757852;81;21343;-77
2021/11/03 04:23:41;;;;;;;39.78;27.37;;;;;;;10.55;79.89;100670.66;1757750;80;20928;-78
2021/11/03 04:26:28;;;;;;;39.45;26.45;;;;;;;10.53;79.95;100667.76;1757882;80;21014;-77
2021/11/03 04:28:56;;;;;;;38.65;27.60;;;;;;;10.54;80.16;100661.13;1757881;81;21386;-77
2021/11/03 04:31:23;;;;;;;37.60;25.45;;;;;;;10.58;80.16;100661.33;1757833;81;21418;-78
2021/11/03 04:33:51;;;;;;;36.48;25.72;;;;;;;10.60;80.04;100663.00;1757854;81;20896;-76
2021/11/03 04:36:20;;;;;;;34.63;26.10;;;;;;;10.60;80.04;100670.86;1757671;81;20963;-78
2021/11/03 04:38:48;;;;;;;40.08;27.02;;;;;;;10.58;80.04;100675.75;1757687;81;20941;-77
2021/11/03 04:41:15;;;;;;;44.38;28.15;;;;;;;10.60;80.28;100687.44;1757968;81;21016;-76
2021/11/03 04:43:45;;;;;;;36.33;26.23;;;;;;;10.63;80.24;100687.72;1757781;80;20845;-78
2021/11/03 04:46:11;;;;;;;38.95;25.97;;;;;;;10.63;80.24;100691.20;1757787;81;21441;-78
2021/11/03 04:48:38;;;;;;;35.00;24.75;;;;;;;10.62;80.35;100689.98;1757699;80;20904;-77
2021/11/03 04:51:06;;;;;;;32.60;24.47;;;;;;;10.60;80.45;100692.68;1758165;81;20892;-76
2021/11/03 04:53:33;;;;;;;31.87;23.77;;;;;;;10.61;80.62;100689.14;1757916;81;21136;-77
2021/11/03 04:56:03;;;;;;;27.15;20.70;;;;;;;10.61;80.60;100690.45;1758125;80;20940;-78
2021/11/03 04:58:31;;;;;;;28.92;21.23;;;;;;;10.57;80.74;100679.28;1757781;80;21038;-75
2021/11/03 05:01:00;;;;;;;26.73;20.50;;;;;;;10.56;80.99;100685.48;1757791;81;21370;-77
2021/11/03 05:03:28;;;;;;;31.12;22.75;;;;;;;10.55;81.08;100684.25;1757726;81;20885;-77
2021/11/03 05:05:59;;;;;;;28.80;22.02;;;;;;;10.54;81.19;100690.45;1757777;81;21890;-76
2021/11/03 05:08:27;;;;;;;29.85;22.58;;;;;;;10.53;81.36;100684.80;1757881;81;20869;-76
2021/11/03 05:10:54;;;;;;;27.25;21.00;;;;;;;10.53;81.55;100693.98;1757907;81;20931;-76
2021/11/03 05:13:20;;;;;;;31.02;22.15;;;;;;;10.56;81.72;100692.04;1758029;80;20975;-75
2021/11/03 05:15:47;;;;;;;31.17;22.48;;;;;;;10.58;81.66;100691.48;1751619;81;21000;-77
2021/11/03 05:18:15;;;;;;;30.30;22.17;;;;;;;10.58;81.67;100691.92;1744462;81;21149;-76
2021/11/03 05:20:42;;;;;;;32.35;22.10;;;;;;;10.61;82.02;100690.92;1744443;81;20976;-77
2021/11/03 05:23:09;;;;;;;29.75;21.52;;;;;;;10.66;81.94;100689.70;1744466;81;21406;-76
2021/11/03 05:25:36;;;;;;;25.88;21.40;;;;;;;10.69;81.79;100701.31;1744206;82;20905;-77
2021/11/03 05:28:03;;;;;;;29.87;21.00;;;;;;;10.72;81.78;100708.18;1746449;82;20940;-76
2021/11/03 05:30:30;;;;;;;25.72;19.95;;;;;;;10.70;81.72;100706.95;1745797;81;21796;-77
2021/11/03 05:32:57;;;;;;;28.23;20.52;;;;;;;10.69;81.81;100720.98;1744754;82;20889;-76
2021/11/03 05:35:25;;;;;;;29.72;20.32;;;;;;;10.70;81.86;100719.23;1744371;82;20897;-75
2021/11/03 05:37:52;;;;;;;26.27;20.10;;;;;;;10.72;82.04;100723.44;1744265;82;20932;-79
2021/11/03 05:40:23;;;;;;;22.00;18.42;;;;;;;10.75;81.96;100724.56;1744880;81;20915;-81
2021/11/03 05:42:50;;;;;;;22.22;17.85;;;;;;;10.76;81.91;100718.84;1744465;82;21148;-81
2021/11/03 05:45:17;;;;;;;22.15;18.40;;;;;;;10.76;81.89;100719.71;1744777;82;20877;-81
2021/11/03 05:47:44;;;;;;;22.10;18.87;;;;;;;10.78;82.01;100724.41;1744364;82;20924;-81
2021/11/03 05:50:15;;;;;;;20.32;16.37;;;;;;;10.82;82.03;100722.42;1745040;82;20932;-81
2021/11/03 05:52:42;;;;;;;22.10;17.00;;;;;;;10.86;81.91;100726.55;1744737;80;20987;-80
2021/11/03 05:55:10;;;;;;;20.48;16.80;;;;;;;10.89;81.93;100736.86;1744648;80;21115;-82
2021/11/03 05:57:40;;;;;;;20.02;15.40;;;;;;;10.92;81.79;100737.17;1744323;82;21517;-83
2021/11/03 06:00:15;;;;;;;19.32;14.78;;;;;;;10.93;81.72;100738.84;1744826;80;20958;-81
2021/11/03 06:02:42;;;;;;;23.38;16.10;;;;;;;10.92;81.60;100736.69;1744635;82;20909;-80
2021/11/03 06:05:10;;;;;;;18.85;14.95;;;;;;;10.93;81.80;100739.68;1744779;82;20849;-80
2021/11/03 06:07:37;;;;;;;18.87;15.32;;;;;;;10.95;81.76;100732.56;1744550;80;21125;-80
2021/11/03 06:10:05;;;;;;;22.75;17.40;;;;;;;10.98;81.66;100735.47;1744839;82;20936;-81
2021/11/03 06:12:34;;;;;;;17.98;15.48;;;;;;;10.98;81.74;100733.71;1744570;82;20984;-81
2021/11/03 06:15:01;;;;;;;18.17;16.02;;;;;;;11.02;81.80;100738.29;1743983;81;20976;-80
2021/11/03 06:17:29;;;;;;;18.82;15.03;;;;;;;11.06;81.77;100733.71;1742807;80;20928;-80
2021/11/03 06:19:57;;;;;;;23.25;16.12;;;;;;;11.09;81.70;100730.89;1743994;81;21135;-81
2021/11/03 06:22:24;;;;;;;20.70;14.85;;;;;;;11.11;81.73;100729.02;1744507;81;20944;-81
2021/11/03 06:24:58;;;;;;;18.42;15.48;;;;;;;11.11;81.70;100727.23;1744677;80;20897;-82
2021/11/03 06:27:27;;;;;;;21.05;16.00;;;;;;;11.15;81.69;100731.36;1745216;80;20932;-79
2021/11/03 06:29:54;;;;;;;20.30;15.48;;;;;;;11.20;81.91;100725.39;1744990;81;20870;-82
2021/11/03 06:32:21;;;;;;;16.65;14.87;;;;;;;11.27;81.85;100736.80;1744584;80;21176;-80
2021/11/03 06:34:48;;;;;;;17.15;14.18;;;;;;;11.32;81.85;100725.09;1744577;81;21015;-80
2021/11/03 06:37:15;;;;;;;18.17;15.00;;;;;;;11.37;81.66;100722.19;1744345;81;20905;-80
2021/11/03 06:39:42;;;;;;;20.97;18.17;;;;;;;11.41;81.72;100721.90;1744671;82;20932;-80
2021/11/03 06:42:09;;;;;;;17.62;14.95;;;;;;;11.51;81.62;100724.78;1745249;82;20853;-80
2021/11/03 06:44:36;;;;;;;17.30;15.00;;;;;;;11.58;81.30;100731.81;1745134;81;21992;-79
2021/11/03 06:47:04;;;;;;;16.80;14.60;;;;;;;11.60;81.18;100729.49;1745810;81;20976;-80
2021/11/03 06:49:31;;;;;;;16.40;14.58;;;;;;;11.62;80.90;100732.84;1744993;82;21050;-79
2021/11/03 06:51:58;;;;;;;18.10;14.53;;;;;;;11.65;80.96;100732.27;1744953;82;20924;-80
2021/11/03 06:54:25;;;;;;;22.67;15.90;;;;;;;11.67;80.78;100726.45;1744134;81;20858;-81
2021/11/03 06:56:52;;;;;;;19.62;14.35;;;;;;;11.69;80.90;100731.14;1744441;81;21390;-81
2021/11/03 06:59:19;;;;;;;16.70;13.38;;;;;;;11.71;80.85;100730.58;1744806;82;20913;-79
2021/11/03 07:01:47;;;;;;;14.85;13.30;;;;;;;11.72;80.87;100734.91;1744561;80;20858;-82
2021/11/03 07:04:14;;;;;;;18.27;12.33;;;;;;;11.72;80.87;100727.03;1744734;82;20885;-81
2021/11/03 07:06:41;;;;;;;17.45;13.93;;;;;;;11.71;80.94;100731.89;1744882;80;21046;-80
2021/11/03 07:09:09;;;;;;;16.40;13.10;;;;;;;11.72;81.08;100727.03;1744606;81;21144;-81
2021/11/03 07:11:36;;;;;;;16.70;13.48;;;;;;;11.73;81.06;100729.54;1744929;81;21323;-81
2021/11/03 07:14:03;;;;;;;16.05;13.95;;;;;;;11.72;81.13;100733.13;1744828;81;20924;-79
2021/11/03 07:16:30;;;;;;;18.20;15.20;;;;;;;11.74;81.23;100734.34;1750293;81;20971;-80
2021/11/03 07:19:03;;;;;;;20.70;13.68;;;;;;;11.76;81.31;100736.38;1757795;80;20920;-83
2021/11/03 07:21:31;;;;;;;18.92;15.20;;;;;;;11.78;81.31;100738.44;1757875;81;21951;-81
2021/11/03 07:23:58;;;;;;;21.12;15.98;;;;;;;11.78;81.17;100739.31;1757922;81;21015;-83
2021/11/03 07:26:25;;;;;;;20.17;14.78;;;;;;;11.73;81.29;100738.73;1757918;81;20892;-81
2021/11/03 07:28:51;;;;;;;22.45;16.23;;;;;;;11.71;81.39;100740.61;1757717;81;20947;-82
2021/11/03 07:31:19;;;;;;;20.77;15.23;;;;;;;11.70;81.55;100737.63;1758158;81;21488;-81
2021/11/03 07:33:46;;;;;;;18.90;15.00;;;;;;;11.69;81.62;100739.02;1758075;81;21165;-83
2021/11/03 07:36:15;;;;;;;20.12;16.02;;;;;;;11.64;81.81;100731.44;1758048;80;20963;-81
2021/11/03 07:38:42;;;;;;;17.23;14.30;;;;;;;11.62;82.03;100742.51;1758197;81;20904;-81
2021/11/03 07:41:09;;;;;;;17.67;14.85;;;;;;;11.64;82.04;100745.88;1758301;81;20943;-79
2021/11/03 07:43:39;;;;;;;15.25;12.78;;;;;;;11.63;82.24;100752.09;1758452;81;20861;-81
2021/11/03 07:46:05;;;;;;;19.27;13.83;;;;;;;11.68;82.25;100762.31;1757814;81;21753;-81
2021/11/03 07:48:33;;;;;;;17.77;13.62;;;;;;;11.72;82.30;100769.06;1741131;81;20912;-78
2021/11/03 07:51:07;;;;;;;14.80;11.45;;;;;;;11.76;82.21;100765.28;1757907;80;21382;-82
2021/11/03 07:53:34;;;;;;;14.28;12.35;;;;;;;11.79;82.11;100771.20;1757572;81;20900;-84
2021/11/03 07:56:05;;;;;;;15.63;12.85;;;;;;;11.81;82.08;100768.01;1757958;80;20944;-82
2021/11/03 07:58:35;;;;;;;16.67;13.70;;;;;;;11.85;82.02;100768.67;1758136;81;21101;-82
2021/11/03 08:01:03;;;;;;;15.98;14.28;;;;;;;11.90;82.07;100767.94;1757687;81;20921;-82
2021/11/03 08:03:31;;;;;;;16.30;13.80;;;;;;;11.96;81.99;100773.25;1758051;81;21011;-83
2021/11/03 08:05:58;;;;;;;14.58;12.53;;;;;;;12.01;81.85;100772.03;1758478;81;20923;-81
2021/11/03 08:08:31;;;;;;;14.50;13.00;;;;;;;12.05;81.77;100774.02;1758439;80;20975;-81
2021/11/03 08:10:59;;;;;;;13.85;11.90;;;;;;;12.08;81.68;100775.59;1755898;81;26569;-83
2021/11/03 08:13:30;;;;;;;15.48;12.75;;;;;;;12.13;81.53;100780.08;1757772;80;20888;-82
2021/11/03 08:15:57;;;;;;;14.98;13.38;;;;;;;12.14;81.41;100776.49;1756700;80;20892;-81
2021/11/03 08:18:28;;;;;;;17.55;14.20;;;;;;;12.16;81.51;100777.24;1744758;82;21418;-85
2021/11/03 08:20:55;;;;;;;15.70;13.50;;;;;;;12.19;81.52;100774.44;1744686;81;20896;-83
2021/11/03 08:23:22;;;;;;;16.00;13.88;;;;;;;12.22;81.57;100776.86;1744534;82;21120;-84
2021/11/03 08:25:49;;;;;;;16.87;14.55;;;;;;;12.26;81.54;100782.77;1744602;82;20877;-84
2021/11/03 08:28:16;;;;;;;15.72;13.78;;;;;;;12.28;81.56;100783.52;1745108;81;20877;-82
2021/11/03 08:30:44;;;;;;;14.93;11.80;;;;;;;12.27;81.70;100785.28;1744990;82;20992;-82
2021/11/03 08:33:19;;;;;;;15.38;12.65;;;;;;;12.26;81.73;100786.23;1745962;80;20913;-82
2021/11/03 08:35:49;;;;;;;12.53;11.22;;;;;;;12.26;81.89;100795.92;1745342;81;21136;-82
2021/11/03 08:38:21;;;;;;;12.53;11.22;;;;;;;12.24;82.04;100788.12;1746680;82;20889;-86
2021/11/03 08:40:50;;;;;;;13.85;12.00;;;;;;;12.26;82.06;100796.76;1745556;81;21351;-86
2021/11/03 08:43:21;;;;;;;12.40;11.10;;;;;;;12.24;82.17;100796.02;1744719;82;20944;-86
2021/11/03 08:45:48;;;;;;;17.12;12.95;;;;;;;12.24;82.30;100796.84;1745123;81;21375;-82
2021/11/03 08:48:15;;;;;;;16.87;12.55;;;;;;;12.24;82.29;100794.22;1745166;82;21128;-87
2021/11/03 08:50:42;;;;;;;16.40;12.20;;;;;;;12.23;82.48;100793.86;1744716;82;20980;-84
2021/11/03 08:53:10;;;;;;;15.78;13.62;;;;;;;12.24;82.60;100799.47;1744790;80;20889;-83
2021/11/03 08:55:37;;;;;;;15.55;13.60;;;;;;;12.23;82.64;100798.28;1744746;82;21134;-84
2021/11/03 08:58:05;;;;;;;17.02;13.58;;;;;;;12.22;82.85;100796.09;1744598;81;20956;-83
2021/11/03 09:00:34;;;;;;;19.75;14.85;;;;;;;12.24;82.92;100799.47;1744893;81;21369;-82
2021/11/03 09:03:01;;;;;;;17.30;15.18;;;;;;;12.28;82.94;100794.04;1744810;81;20842;-84
2021/11/03 09:05:28;;;;;;;17.60;15.35;;;;;;;12.29;82.97;100792.61;1744741;81;20838;-85
2021/11/03 09:07:59;;;;;;;17.20;13.75;;;;;;;12.31;83.03;100792.03;1744651;82;20896;-85
2021/11/03 09:10:29;;;;;;;15.83;14.13;;;;;;;12.37;83.14;100797.39;1744830;80;20881;-87
2021/11/03 09:12:57;;;;;;;15.23;13.65;;;;;;;12.42;83.10;100796.61;1745204;82;21163;-87
2021/11/03 09:15:24;;;;;;;16.80;14.53;;;;;;;12.48;83.10;100801.48;1745198;82;21524;-85
2021/11/03 09:17:58;;;;;;;15.65;13.30;;;;;;;12.53;82.97;100792.80;1754501;80;20963;-88
2021/11/03 09:20:20;;;;;;;14.53;12.43;;;;;;;12.57;82.88;100792.98;1758298;81;21038;-85
2021/11/03 09:22:47;;;;;;;18.85;15.13;;;;;;;12.60;82.66;100792.77;1759813;80;20893;-88
2021/11/03 09:25:19;;;;;;;19.23;15.32;;;;;;;12.60;82.71;100787.98;1761349;80;21098;-88
2021/11/03 09:27:46;;;;;;;18.30;15.60;;;;;;;12.59;82.60;100795.04;1760821;78;20881;-84
2021/11/03 09:30:14;;;;;;;21.82;17.32;;;;;;;12.60;82.75;100787.98;1758926;80;20979;-88
2021/11/03 09:32:45;;;;;;;21.75;15.93;;;;;;;12.63;82.90;100789.12;1758401;80;20987;-88
2021/11/03 09:35:13;;;;;;;21.77;17.87;;;;;;;12.68;82.89;100784.38;1760644;81;20942;-86
2021/11/03 09:37:42;;;;;;;21.55;17.05;;;;;;;12.73;82.82;100790.17;1759275;81;21109;-88
2021/11/03 09:40:12;;;;;;;23.52;18.02;;;;;;;12.76;82.73;100793.07;1758368;80;21425;-87
2021/11/03 09:42:39;;;;;;;25.50;17.20;;;;;;;12.76;82.60;100788.67;1758070;81;20923;-85
2021/11/03 09:45:11;;;;;;;26.97;20.08;;;;;;;12.73;82.62;100788.86;1758129;81;21366;-86
2021/11/03 09:47:40;;;;;;;25.12;17.62;;;;;;;12.74;82.79;100787.06;1757380;80;20892;-85
2021/11/03 09:50:20;;;;;;;25.27;17.82;;;;;;;12.78;82.82;100785.92;1758249;81;21109;-85
2021/11/03 09:52:55;;;;;;;23.38;18.12;;;;;;;12.78;82.72;100785.47;1758274;81;20880;-86
2021/11/03 09:55:30;;;;;;;23.07;17.40;;;;;;;12.78;82.88;100788.55;1758513;80;20983;-85
2021/11/03 09:58:07;;;;;;;25.72;18.57;;;;;;;12.76;83.00;100783.41;1757050;80;20889;-87
2021/11/03 10:00:46;;;;;;;23.27;18.77;;;;;;;12.73;83.13;100788.02;1758949;80;21496;-88
2021/11/03 10:03:53;;;;;;;26.97;19.92;;;;;;;12.74;83.47;100788.38;1758131;81;21159;-87
2021/11/03 10:06:30;;;;;;;23.92;17.98;;;;;;;12.78;83.45;100788.55;1758689;81;21022;-92
2021/11/03 10:08:58;;;;;;;26.85;18.42;;;;;;;12.82;83.44;100784.77;1758974;81;20881;-86
2021/11/03 10:11:36;;;;;;;24.00;17.60;;;;;;;12.84;83.38;100782.41;1758742;80;20924;-90
2021/11/03 10:14:03;;;;;;;23.85;19.12;;;;;;;12.88;83.39;100786.17;1758956;81;20995;-94
2021/11/03 10:16:57;;;;;;;;;;;;;;;;;;;;;
2021/11/03 10:19:31;;;;;;;25.68;19.12;;;;;;;12.88;83.54;100787.48;1757132;80;20849;-92
2021/11/03 10:22:23;;;;;;;26.62;19.02;;;;;;;12.90;83.53;100789.55;1759837;80;20893;-93
2021/11/03 10:25:17;;;;;;;23.45;19.67;;;;;;;12.92;83.59;100787.66;1759821;81;20928;-89
2021/11/03 10:27:56;;;;;;;23.92;18.45;;;;;;;12.91;83.64;100780.20;1758106;80;20876;-89
2021/11/03 10:30:31;;;;;;;25.48;17.75;;;;;;;12.95;83.63;100776.42;1759734;81;21148;-92
2021/11/03 10:33:23;;;;;;;24.32;18.27;;;;;;;12.98;83.62;100776.23;1761415;81;20892;-93
2021/11/03 10:36:00;;;;;;;22.20;19.20;;;;;;;12.97;83.68;100783.75;1744348;80;21017;-93
2021/11/03 10:38:33;;;;;;;23.95;19.20;;;;;;;12.98;83.82;100780.19;1759173;81;21042;-92
2021/11/03 10:41:05;;;;;;;21.73;17.55;;;;;;;13.02;84.00;100783.44;1741572;81;21014;-91
2021/11/03 10:43:43;;;;;;;24.60;19.07;;;;;;;13.07;83.79;100777.38;1759370;80;21133;-90
2021/11/03 10:46:26;;;;;;;19.05;16.65;;;;;;;13.07;83.88;100776.06;1757843;81;21544;-92
2021/11/03 10:49:26;;;;;;;19.87;16.90;;;;;;;13.12;84.10;100775.30;1759359;81;20991;-92
2021/11/03 10:52:05;;;;;;;21.52;16.80;;;;;;;13.17;83.91;100782.39;1757563;81;20932;-86
2021/11/03 10:54:50;;;;;;;22.15;18.15;;;;;;;13.19;83.88;100783.14;1759788;80;20892;-94
2021/11/03 10:57:40;;;;;;;21.42;19.12;;;;;;;13.20;83.82;100783.49;1743947;81;21671;-92
2021/11/03 11:00:24;;;;;;;23.22;17.42;;;;;;;13.21;83.86;100779.93;1757299;81;20916;-90
2021/11/03 11:03:05;;;;;;;20.45;18.25;;;;;;;13.22;83.96;100786.87;1760043;81;21019;-89
2021/11/03 11:05:38;;;;;;;18.87;15.28;;;;;;;13.23;83.99;100783.30;1759258;80;21465;-90
2021/11/03 11:08:13;;;;;;;25.00;18.00;;;;;;;13.09;84.01;100757.53;1760430;81;20892;-88
2021/11/03 11:10:48;;;;;;;22.37;17.00;;;;;;;13.22;84.13;100771.55;1761445;78;21125;-87
2021/11/03 11:13:30;;;;;;;28.87;17.82;;;;;;;13.24;84.22;100777.55;1758421;80;21011;-90
2021/11/03 11:16:33;;;;;;;;;;;;;;;;;;;;;
2021/11/03 11:19:23;;;;;;;27.07;17.80;;;;;;;13.27;84.34;100778.20;1714650;81;21045;-91
2021/11/03 11:22:12;;;;;;;24.40;15.72;;;;;;;13.27;84.29;100774.70;1682939;84;21064;-92
2021/11/03 11:25:03;;;;;;;28.23;15.35;;;;;;;13.27;84.45;100778.65;1682583;85;21075;-91
2021/11/03 11:27:52;;;;;;;17.92;12.53;;;;;;;13.29;84.54;100787.80;1669724;85;20988;-89